< Typhoon 197221 1972 Season Typhoon 197223 >
Typhoon 197222 (KATHY)
General InformationTrack Information on Google Maps || Disaster Info.ResourceGoogle EarthGE AnimationAtom FeedGeoJSON
Detalied Best Track (Time Zone = UTC)
Year Month Day Hour Lat. Long. Pressure (hPa) Wind (kt) Class Image Chart
1972 9 27 18 11.9 166.9 1004 0 2 -- Chart
1972 9 28 00 12.2 166.2 1004 0 2 -- Chart
1972 9 28 06 12.4 165.5 1002 0 2 -- Chart
1972 9 28 12 12.6 164.8 1002 0 2 -- Chart
1972 9 28 18 12.9 164.2 1002 0 2 -- Chart
1972 9 29 00 13.3 163.4 1002 0 2 -- Chart
1972 9 29 06 13.6 162.5 1002 0 2 -- Chart
1972 9 29 12 13.9 161.6 1002 0 2 -- Chart
1972 9 29 18 14.4 160.5 1000 0 2 -- Chart
1972 9 30 00 14.7 159.7 1000 0 2 -- Chart
1972 9 30 06 15.2 158.7 1000 0 2 -- Chart
1972 9 30 12 15.5 157.6 1000 0 2 -- Chart
1972 9 30 18 15.7 156.5 1000 0 2 -- Chart
1972 10 1 00 16.2 155.6 990 0 9 -- Chart
1972 10 1 06 16.8 154.4 990 0 9 -- Chart
1972 10 1 12 17.6 153.0 990 0 9 -- Chart
1972 10 1 18 18.5 151.7 990 0 9 -- Chart
1972 10 2 00 19.6 150.3 990 0 9 -- Chart
1972 10 2 06 20.2 147.8 985 0 9 -- Chart
1972 10 2 12 20.4 146.8 985 0 9 -- Chart
1972 10 2 18 20.4 146.3 985 0 9 -- Chart
1972 10 3 00 20.5 145.7 980 0 9 -- Chart
1972 10 3 06 20.8 145.2 980 0 9 -- Chart
1972 10 3 12 21.2 144.2 980 0 9 -- Chart
1972 10 3 18 21.0 142.8 985 0 9 -- Chart
1972 10 4 00 21.0 141.3 990 0 9 -- Chart
1972 10 4 06 21.4 139.9 990 0 9 -- Chart
1972 10 4 12 22.0 138.4 990 0 9 -- Chart
1972 10 4 18 23.2 137.6 990 0 9 -- Chart
1972 10 5 00 24.3 137.0 990 0 9 -- Chart
1972 10 5 06 25.7 136.8 990 0 9 -- Chart
1972 10 5 12 27.4 137.1 990 0 9 -- Chart
1972 10 5 18 29.3 137.8 990 0 9 -- Chart
1972 10 6 00 31.4 139.2 985 0 9 -- Chart
1972 10 6 06 33.7 141.8 985 0 9 -- Chart
1972 10 6 12 35.8 145.0 990 0 9 -- Chart
1972 10 6 18 37.5 148.0 994 0 6 -- Chart
1972 10 7 00 40.0 152.0 994 0 6 -- Chart
1972 10 7 06 42.3 156.5 996 0 6 -- Chart
1972 10 7 12 45.0 162.0 994 0 6 -- Chart
1972 10 7 18 47.5 167.0 992 0 6 -- Chart
1972 10 8 00 50.0 172.0 992 0 6 -- Chart
1972 10 8 06 52.6 175.4 992 0 6 -- Chart
1972 10 8 12 56.0 178.0 988 0 6 -- Chart
1972 10 8 18 59.4 179.9 984 0 6 -- Chart
1972 10 9 00 63.0 179.0 984 0 6 -- Chart
Japan Meteorological Agency Best Track Data | Correction Date : 1989-06-01
< Typhoon 197221 1972 Season Typhoon 197223 >

Help